createdAt,value
2017-07-16T00:07:19.000Z,23.09
2017-07-16T00:17:19.000Z,23.04
2017-07-16T00:27:19.000Z,23.02
2017-07-16T00:37:19.000Z,22.99
2017-07-16T00:47:19.000Z,22.95
2017-07-16T00:57:19.000Z,22.95
2017-07-16T01:07:19.000Z,22.92
2017-07-16T01:17:19.000Z,22.9
2017-07-16T01:27:19.000Z,22.87
2017-07-16T01:37:19.000Z,22.84
2017-07-16T01:47:19.000Z,22.84
2017-07-16T01:57:19.000Z,22.81
2017-07-16T02:07:19.000Z,22.79
2017-07-16T02:17:19.000Z,22.78
2017-07-16T02:27:19.000Z,22.75
2017-07-16T02:37:19.000Z,22.74
2017-07-16T02:47:19.000Z,22.72
2017-07-16T02:57:19.000Z,22.71
2017-07-16T03:07:19.000Z,22.68
2017-07-16T03:27:20.000Z,22.66
2017-07-16T03:37:19.000Z,22.65
2017-07-16T03:47:19.000Z,22.64
2017-07-16T03:57:19.000Z,22.63
2017-07-16T04:07:19.000Z,22.61
2017-07-16T04:17:20.000Z,22.6
2017-07-16T04:27:19.000Z,22.59
2017-07-16T04:37:19.000Z,22.6
2017-07-16T04:47:20.000Z,22.58
2017-07-16T04:57:20.000Z,22.59
2017-07-16T05:07:20.000Z,22.58
2017-07-16T05:17:20.000Z,22.57
2017-07-16T05:27:20.000Z,22.56
2017-07-16T05:37:20.000Z,22.55
2017-07-16T05:47:20.000Z,22.56
2017-07-16T05:57:20.000Z,22.54
2017-07-16T06:07:20.000Z,22.54
2017-07-16T06:17:20.000Z,22.55
2017-07-16T06:27:20.000Z,22.55
2017-07-16T06:37:20.000Z,22.57
2017-07-16T06:47:20.000Z,22.57
2017-07-16T06:57:20.000Z,22.57
2017-07-16T07:07:20.000Z,22.55
2017-07-16T07:17:20.000Z,22.58
2017-07-16T07:27:20.000Z,22.62
2017-07-16T07:37:20.000Z,22.58
2017-07-16T07:47:21.000Z,22.62
2017-07-16T07:57:20.000Z,22.63
2017-07-16T08:07:20.000Z,22.67
2017-07-16T08:17:20.000Z,22.69
2017-07-16T08:27:20.000Z,22.69
2017-07-16T08:37:20.000Z,22.72
2017-07-16T08:47:20.000Z,22.75
2017-07-16T08:57:20.000Z,22.75
2017-07-16T09:07:20.000Z,22.77
2017-07-16T09:17:20.000Z,22.79
2017-07-16T09:27:20.000Z,22.79
2017-07-16T09:37:20.000Z,22.8
2017-07-16T09:47:20.000Z,22.81
2017-07-16T09:57:20.000Z,22.85
2017-07-16T10:07:20.000Z,23.04
2017-07-16T10:17:20.000Z,23.08
2017-07-16T10:27:20.000Z,23.12
2017-07-16T10:37:20.000Z,23.19
2017-07-16T10:47:20.000Z,23.36
2017-07-16T10:57:20.000Z,23.35
2017-07-16T11:07:20.000Z,23.38
2017-07-16T11:17:20.000Z,23.53
2017-07-16T11:27:20.000Z,23.5
2017-07-16T11:37:20.000Z,23.47
2017-07-16T11:47:20.000Z,23.46
2017-07-16T11:57:20.000Z,23.5
2017-07-16T12:07:20.000Z,23.53
2017-07-16T12:17:20.000Z,23.56
2017-07-16T12:27:20.000Z,23.63
2017-07-16T12:37:20.000Z,23.68
2017-07-16T12:47:20.000Z,23.71
2017-07-16T12:57:21.000Z,23.73
2017-07-16T13:07:21.000Z,23.68
2017-07-16T13:17:21.000Z,23.69
2017-07-16T13:27:21.000Z,23.7
2017-07-16T13:37:21.000Z,23.68
2017-07-16T13:47:21.000Z,23.68
2017-07-16T13:57:21.000Z,23.72
2017-07-16T14:07:21.000Z,23.77
2017-07-16T14:17:21.000Z,23.82
2017-07-16T14:27:21.000Z,23.82
2017-07-16T14:37:21.000Z,23.89
2017-07-16T14:47:21.000Z,23.88
2017-07-16T14:57:22.000Z,23.94
2017-07-16T15:07:21.000Z,24
2017-07-16T15:17:21.000Z,24.05
2017-07-16T15:27:21.000Z,24.12
2017-07-16T15:37:21.000Z,24.12
2017-07-16T15:47:21.000Z,24.1
2017-07-16T15:57:21.000Z,24.13
2017-07-16T16:07:21.000Z,24.05
2017-07-16T16:17:21.000Z,24.04
2017-07-16T16:27:21.000Z,24.01
2017-07-16T16:37:21.000Z,24.01
2017-07-16T16:47:21.000Z,24.04
2017-07-16T16:57:21.000Z,24.06
2017-07-16T17:07:21.000Z,24.06
2017-07-16T17:17:21.000Z,24.04
2017-07-16T17:27:22.000Z,24.05
2017-07-16T17:37:21.000Z,24.05
2017-07-16T17:47:21.000Z,24.07
2017-07-16T17:57:21.000Z,24.07
2017-07-16T18:07:21.000Z,24.07
2017-07-16T18:17:24.000Z,24.03
2017-07-16T18:27:21.000Z,24
2017-07-16T18:37:21.000Z,24.04
2017-07-16T18:47:21.000Z,24.05
2017-07-16T18:57:21.000Z,24.02
2017-07-16T19:07:21.000Z,23.99
2017-07-16T19:17:21.000Z,23.99
2017-07-16T19:27:21.000Z,23.99
2017-07-16T19:37:21.000Z,23.98
2017-07-16T19:47:21.000Z,24.02
2017-07-16T19:57:21.000Z,24.02
2017-07-16T20:07:23.000Z,23.99
2017-07-16T20:17:21.000Z,23.99
2017-07-16T20:27:21.000Z,23.99
2017-07-16T20:37:21.000Z,23.98
2017-07-16T20:47:21.000Z,24.01
2017-07-16T20:57:23.000Z,24
2017-07-16T21:07:21.000Z,24.01
2017-07-16T21:17:22.000Z,24.02
2017-07-16T21:27:22.000Z,23.98
2017-07-16T21:37:22.000Z,23.98
2017-07-16T21:47:22.000Z,23.97
2017-07-16T21:57:22.000Z,23.91
2017-07-16T22:07:22.000Z,23.88
2017-07-16T22:17:22.000Z,23.87
2017-07-16T22:27:23.000Z,23.86
2017-07-16T22:37:22.000Z,23.82
2017-07-16T22:47:22.000Z,23.77
2017-07-16T22:57:22.000Z,23.74
2017-07-16T23:07:22.000Z,23.7
2017-07-16T23:17:22.000Z,23.7
2017-07-16T23:27:22.000Z,23.66
2017-07-16T23:37:22.000Z,23.64
2017-07-16T23:47:22.000Z,23.61
2017-07-16T23:57:22.000Z,23.58
